createdAt,value
2022-11-18T00:02:07.980Z,4.40
2022-11-18T00:04:34.767Z,4.40
2022-11-18T00:07:01.617Z,4.40
2022-11-18T00:09:28.476Z,4.40
2022-11-18T00:12:13.674Z,4.40
2022-11-18T00:14:40.470Z,4.50
2022-11-18T00:17:07.873Z,4.50
2022-11-18T00:19:37.151Z,4.60
2022-11-18T00:22:05.697Z,4.70
2022-11-18T00:24:32.696Z,4.80
2022-11-18T00:26:59.766Z,4.80
2022-11-18T00:29:28.588Z,4.90
2022-11-18T00:31:56.853Z,4.90
2022-11-18T00:34:24.416Z,4.90
2022-11-18T00:36:51.399Z,5.00
2022-11-18T00:39:20.614Z,4.90
2022-11-18T00:42:06.733Z,5.00
2022-11-18T00:44:33.898Z,5.00
2022-11-18T00:47:00.683Z,5.00
2022-11-18T00:49:27.509Z,4.90
2022-11-18T00:51:54.379Z,4.90
2022-11-18T00:54:21.301Z,5.00
2022-11-18T00:56:48.104Z,5.00
2022-11-18T00:59:15.102Z,5.00
2022-11-18T01:01:42.218Z,5.10
2022-11-18T01:04:09.085Z,5.00
2022-11-18T01:06:35.858Z,5.00
2022-11-18T01:09:02.679Z,5.00
2022-11-18T01:11:48.092Z,5.10
2022-11-18T01:14:14.916Z,5.10
2022-11-18T01:16:41.664Z,5.10
2022-11-18T01:19:08.626Z,5.00
2022-11-18T01:21:36.302Z,5.10
2022-11-18T01:24:03.142Z,5.10
2022-11-18T01:26:29.944Z,5.10
2022-11-18T01:28:57.811Z,5.00
2022-11-18T01:31:24.743Z,5.00
2022-11-18T01:33:51.739Z,5.10
2022-11-18T01:36:24.303Z,5.10
2022-11-18T01:38:52.251Z,5.10
2022-11-18T01:41:21.056Z,5.00
2022-11-18T01:44:24.259Z,5.00
2022-11-18T01:46:51.016Z,4.90
2022-11-18T01:49:18.521Z,4.90
2022-11-18T01:51:58.164Z,4.80
2022-11-18T01:54:34.149Z,4.90
2022-11-18T01:57:05.595Z,4.90
2022-11-18T01:59:35.573Z,5.00
2022-11-18T02:02:08.295Z,5.10
2022-11-18T02:04:35.121Z,5.10
2022-11-18T02:07:02.813Z,5.10
2022-11-18T02:09:30.548Z,5.10
2022-11-18T02:11:57.697Z,5.10
2022-11-18T02:14:28.319Z,5.10
2022-11-18T02:17:06.231Z,5.10
2022-11-18T02:19:41.176Z,5.10
2022-11-18T02:22:25.760Z,5.10
2022-11-18T02:25:17.058Z,5.10
2022-11-18T02:28:31.634Z,5.10
2022-11-18T02:31:08.375Z,5.10
2022-11-18T02:33:49.773Z,5.10
2022-11-18T02:36:22.735Z,4.80
2022-11-18T02:38:54.191Z,4.70
2022-11-18T02:41:26.826Z,4.80
2022-11-18T02:43:59.375Z,4.90
2022-11-18T02:46:31.138Z,4.90
2022-11-18T02:48:57.857Z,4.90
2022-11-18T02:51:28.502Z,4.90
2022-11-18T02:54:04.087Z,4.90
2022-11-18T02:56:33.383Z,4.90
2022-11-18T02:59:00.184Z,5.00
2022-11-18T03:01:29.984Z,4.90
2022-11-18T03:03:57.362Z,5.00
2022-11-18T03:06:56.927Z,5.00
2022-11-18T03:09:35.258Z,5.00
2022-11-18T03:12:32.619Z,5.10
2022-11-18T03:15:11.416Z,5.10
2022-11-18T03:17:44.114Z,5.10
2022-11-18T03:20:27.745Z,5.10
2022-11-18T03:23:14.504Z,5.10
2022-11-18T03:25:54.198Z,5.10
2022-11-18T03:28:20.960Z,5.00
2022-11-18T03:31:19.656Z,5.00
2022-11-18T03:33:51.945Z,4.90
2022-11-18T03:36:22.805Z,4.90
2022-11-18T03:38:54.381Z,4.90
2022-11-18T03:41:24.132Z,4.80
2022-11-18T03:43:57.985Z,4.70
2022-11-18T03:46:46.824Z,4.70
2022-11-18T03:49:26.560Z,4.70
2022-11-18T03:52:00.109Z,4.70
2022-11-18T03:54:32.303Z,4.70
2022-11-18T03:57:16.903Z,4.70
2022-11-18T04:00:22.911Z,4.70
2022-11-18T04:02:50.483Z,4.70
2022-11-18T04:05:19.335Z,4.80
2022-11-18T04:07:56.694Z,4.60
2022-11-18T04:10:33.431Z,4.60
2022-11-18T04:13:18.335Z,4.60
2022-11-18T04:15:45.220Z,4.60
2022-11-18T04:18:12.344Z,4.60
2022-11-18T04:20:39.481Z,4.60
2022-11-18T04:23:07.699Z,4.60
2022-11-18T04:25:35.480Z,4.50
2022-11-18T04:28:02.344Z,4.60
2022-11-18T04:30:31.127Z,4.60
2022-11-18T04:32:58.467Z,4.50
2022-11-18T04:35:26.246Z,4.60
2022-11-18T04:37:53.410Z,4.60
2022-11-18T04:40:20.184Z,4.50
2022-11-18T04:42:47.544Z,4.50
2022-11-18T04:45:14.334Z,4.40
2022-11-18T04:47:41.640Z,4.30
2022-11-18T04:50:09.079Z,4.30
2022-11-18T04:52:36.005Z,4.20
2022-11-18T04:55:03.223Z,4.30
2022-11-18T04:57:29.989Z,4.30
2022-11-18T04:59:56.752Z,4.40
2022-11-18T05:02:23.607Z,4.50
2022-11-18T05:04:50.417Z,4.50
2022-11-18T05:07:17.406Z,4.40
2022-11-18T05:09:44.316Z,4.60
2022-11-18T05:12:33.834Z,4.60
2022-11-18T05:15:01.216Z,4.50
2022-11-18T05:17:28.066Z,4.50
2022-11-18T05:19:54.987Z,4.40
2022-11-18T05:22:21.966Z,4.40
2022-11-18T05:24:49.068Z,4.50
2022-11-18T05:27:16.192Z,4.60
2022-11-18T05:29:43.743Z,4.50
2022-11-18T05:32:10.568Z,4.50
2022-11-18T05:34:37.355Z,4.50
2022-11-18T05:37:04.167Z,4.50
2022-11-18T05:39:33.816Z,4.60
2022-11-18T05:42:19.194Z,4.70
2022-11-18T05:44:46.362Z,4.60
2022-11-18T05:47:13.650Z,4.60
2022-11-18T05:49:40.412Z,4.50
2022-11-18T05:52:07.384Z,4.50
2022-11-18T05:54:34.291Z,4.40
2022-11-18T05:57:01.748Z,4.50
2022-11-18T05:59:29.003Z,4.50
2022-11-18T06:02:11.780Z,4.60
2022-11-18T06:04:56.292Z,4.50
2022-11-18T06:07:40.337Z,4.50
2022-11-18T06:10:07.752Z,4.50
2022-11-18T06:12:41.009Z,4.60
2022-11-18T06:15:15.711Z,4.60
2022-11-18T06:18:05.662Z,4.60
2022-11-18T06:20:35.398Z,4.60
2022-11-18T06:23:02.244Z,4.70
2022-11-18T06:25:29.356Z,4.60
2022-11-18T06:27:59.820Z,4.50
2022-11-18T06:30:26.623Z,4.60
2022-11-18T06:32:53.657Z,4.60
2022-11-18T06:35:20.417Z,4.50
2022-11-18T06:37:47.640Z,4.60
2022-11-18T06:40:14.676Z,4.60
2022-11-18T06:42:59.903Z,4.60
2022-11-18T06:45:26.861Z,4.60
2022-11-18T06:47:58.134Z,4.70
2022-11-18T06:50:24.948Z,4.60
2022-11-18T06:52:51.743Z,4.60
2022-11-18T06:55:18.800Z,4.70
2022-11-18T06:57:46.020Z,4.70
2022-11-18T07:00:13.644Z,4.80
2022-11-18T07:02:40.395Z,4.80
2022-11-18T07:05:07.395Z,4.90
2022-11-18T07:07:41.701Z,4.70
2022-11-18T07:10:09.614Z,4.60
2022-11-18T07:12:36.362Z,4.60
2022-11-18T07:15:03.325Z,4.60
2022-11-18T07:17:31.199Z,4.60
2022-11-18T07:19:58.039Z,4.60
2022-11-18T07:22:24.803Z,4.60
2022-11-18T07:24:51.592Z,4.60
2022-11-18T07:27:18.361Z,4.60
2022-11-18T07:29:45.109Z,4.60
2022-11-18T07:32:11.866Z,4.60
2022-11-18T07:34:38.774Z,4.70
2022-11-18T07:37:05.535Z,4.60
2022-11-18T07:39:32.375Z,4.60
2022-11-18T07:41:59.426Z,4.80
2022-11-18T07:44:26.188Z,4.80
2022-11-18T07:46:53.072Z,4.80
2022-11-18T07:49:20.115Z,4.70
2022-11-18T07:51:47.123Z,4.60
2022-11-18T07:54:17.111Z,4.70
2022-11-18T07:56:44.061Z,4.80
2022-11-18T07:59:10.898Z,4.70
2022-11-18T08:01:37.872Z,4.80
2022-11-18T08:04:10.709Z,4.70
2022-11-18T08:06:38.865Z,4.70
2022-11-18T08:09:07.136Z,4.70
2022-11-18T08:11:33.999Z,4.80
2022-11-18T08:14:00.887Z,4.70
2022-11-18T08:16:28.045Z,4.80
2022-11-18T08:18:55.198Z,4.80
2022-11-18T08:21:23.296Z,4.80
2022-11-18T08:23:51.803Z,4.70
2022-11-18T08:26:19.447Z,4.80
2022-11-18T08:28:46.583Z,4.70
2022-11-18T08:31:16.569Z,4.80
2022-11-18T08:34:12.115Z,4.80
2022-11-18T08:36:39.090Z,4.80
2022-11-18T08:39:11.566Z,4.80
2022-11-18T08:41:43.484Z,4.90
2022-11-18T08:44:15.943Z,5.00
2022-11-18T08:46:46.214Z,5.10
2022-11-18T08:49:13.083Z,5.10
2022-11-18T08:51:39.911Z,5.00
2022-11-18T08:54:06.742Z,5.00
2022-11-18T08:56:33.577Z,5.00
2022-11-18T08:59:00.456Z,5.10
2022-11-18T09:01:27.721Z,5.10
2022-11-18T09:03:54.753Z,5.10
2022-11-18T09:06:24.273Z,5.10
2022-11-18T09:08:51.278Z,5.10
2022-11-18T09:11:26.655Z,5.20
2022-11-18T09:16:43.047Z,5.20
2022-11-18T09:19:39.673Z,5.20
2022-11-18T09:21:56.632Z,5.40
2022-11-18T09:24:23.463Z,5.40
2022-11-18T09:26:50.371Z,5.50
2022-11-18T09:29:17.265Z,5.50
2022-11-18T09:31:44.104Z,5.40
2022-11-18T09:34:13.951Z,5.40
2022-11-18T09:36:40.729Z,5.40
2022-11-18T09:39:12.088Z,5.40
2022-11-18T09:41:51.100Z,5.40
2022-11-18T09:44:26.947Z,5.40
2022-11-18T09:47:08.795Z,5.40
2022-11-18T09:50:20.353Z,5.50
2022-11-18T09:53:03.955Z,5.60
2022-11-18T09:55:31.880Z,5.70
2022-11-18T09:57:59.529Z,5.80
2022-11-18T10:00:30.296Z,5.80
2022-11-18T10:03:03.036Z,5.70
2022-11-18T10:05:44.104Z,5.80
2022-11-18T10:08:17.201Z,5.70
2022-11-18T10:10:58.874Z,5.70
2022-11-18T10:13:28.352Z,5.70
2022-11-18T10:16:08.842Z,5.70
2022-11-18T10:19:00.576Z,5.90
2022-11-18T10:21:46.635Z,5.80
2022-11-18T10:24:20.878Z,5.80
2022-11-18T10:26:48.167Z,5.90
2022-11-18T10:29:14.991Z,6.00
2022-11-18T10:32:06.590Z,6.00
2022-11-18T10:34:35.314Z,5.90
2022-11-18T10:37:52.489Z,6.00
2022-11-18T10:40:36.032Z,6.00
2022-11-18T10:43:02.912Z,6.10
2022-11-18T10:45:31.727Z,6.20
2022-11-18T10:47:59.792Z,6.20
2022-11-18T10:50:32.084Z,6.20
2022-11-18T10:52:59.545Z,6.30
2022-11-18T10:55:28.516Z,6.20
2022-11-18T10:57:59.697Z,6.20
2022-11-18T11:00:42.455Z,6.30
2022-11-18T11:03:31.644Z,6.40
2022-11-18T11:06:26.348Z,6.50
2022-11-18T11:08:56.333Z,6.50
2022-11-18T11:11:30.114Z,6.40
2022-11-18T11:14:34.492Z,6.50
2022-11-18T11:17:12.513Z,6.60
2022-11-18T11:19:42.575Z,6.60
2022-11-18T11:22:14.402Z,6.60
2022-11-18T11:24:41.388Z,6.60
2022-11-18T11:30:20.417Z,6.50
2022-11-18T11:33:10.119Z,6.50
2022-11-18T11:35:53.927Z,6.70
2022-11-18T11:38:43.563Z,6.70
2022-11-18T11:41:22.049Z,6.70
2022-11-18T11:43:48.779Z,6.80
2022-11-18T11:46:29.515Z,6.80
2022-11-18T11:49:06.801Z,6.80
2022-11-18T11:51:37.750Z,6.70
2022-11-18T11:54:13.683Z,6.70
2022-11-18T11:56:59.136Z,6.70
2022-11-18T11:59:28.971Z,6.80
2022-11-18T12:02:17.368Z,6.80
2022-11-18T12:04:51.591Z,6.90
2022-11-18T12:07:58.066Z,7.00
2022-11-18T12:10:51.438Z,7.00
2022-11-18T12:13:48.953Z,7.10
2022-11-18T12:16:24.036Z,7.10
2022-11-18T12:18:56.938Z,7.10
2022-11-18T12:21:42.355Z,7.20
2022-11-18T12:24:31.163Z,7.20
2022-11-18T12:27:00.292Z,7.10
2022-11-18T12:29:40.740Z,7.10
2022-11-18T12:32:27.732Z,7.10
2022-11-18T12:35:01.316Z,7.20
2022-11-18T12:37:28.058Z,7.20
2022-11-18T12:39:58.879Z,7.20
2022-11-18T12:42:57.570Z,7.30
2022-11-18T12:45:45.918Z,7.30
2022-11-18T12:48:28.917Z,7.40
2022-11-18T12:50:58.356Z,7.40
2022-11-18T12:53:39.119Z,7.30
2022-11-18T12:56:18.150Z,7.40
2022-11-18T12:58:46.757Z,7.40
2022-11-18T13:01:16.649Z,7.50
2022-11-18T13:03:43.535Z,7.50
2022-11-18T13:06:19.427Z,7.50
2022-11-18T13:08:53.496Z,7.60
2022-11-18T13:11:39.835Z,7.70
2022-11-18T13:14:32.621Z,7.70
2022-11-18T13:17:18.067Z,7.70
2022-11-18T13:19:57.727Z,7.60
2022-11-18T13:22:43.589Z,7.60
2022-11-18T13:25:24.774Z,7.60
2022-11-18T13:28:06.782Z,7.60
2022-11-18T13:30:36.410Z,7.60
2022-11-18T13:33:03.498Z,7.60
2022-11-18T13:35:30.651Z,7.50
2022-11-18T13:38:00.330Z,7.60
2022-11-18T13:40:38.189Z,7.60
2022-11-18T13:43:05.026Z,7.60
2022-11-18T13:45:34.077Z,7.60
2022-11-18T13:48:14.556Z,7.60
2022-11-18T13:50:51.190Z,7.50
2022-11-18T13:53:27.065Z,7.60
2022-11-18T13:55:56.266Z,7.60
2022-11-18T13:59:15.605Z,7.70
2022-11-18T14:01:33.236Z,7.60
2022-11-18T14:04:16.201Z,7.60
2022-11-18T14:06:43.122Z,7.60
2022-11-18T14:09:16.663Z,7.50
2022-11-18T14:12:08.586Z,7.40
2022-11-18T14:18:26.205Z,7.30
2022-11-18T14:20:54.719Z,7.20
2022-11-18T14:23:36.653Z,7.20
2022-11-18T14:26:04.917Z,7.20
2022-11-18T14:28:37.232Z,7.10
2022-11-18T14:31:13.088Z,7.10
2022-11-18T14:33:40.038Z,7.10
2022-11-18T14:36:17.895Z,7.00
2022-11-18T14:39:11.839Z,7.00
2022-11-18T14:41:47.316Z,7.00
2022-11-18T14:44:14.622Z,6.80
2022-11-18T14:46:43.895Z,6.80
2022-11-18T14:49:14.677Z,6.80
2022-11-18T14:51:41.481Z,6.80
2022-11-18T14:54:13.958Z,6.70
2022-11-18T14:56:42.119Z,6.80
2022-11-18T14:59:17.339Z,6.90
2022-11-18T15:01:45.062Z,6.70
2022-11-18T15:04:12.079Z,6.80
2022-11-18T15:06:40.005Z,6.60
2022-11-18T15:09:10.482Z,6.60
2022-11-18T15:11:37.313Z,6.70
2022-11-18T15:14:04.103Z,6.70
2022-11-18T15:16:32.647Z,6.70
2022-11-18T15:19:01.516Z,6.60
2022-11-18T15:21:28.685Z,6.60
2022-11-18T15:23:55.730Z,6.60
2022-11-18T15:26:26.977Z,6.40
2022-11-18T15:28:56.205Z,6.40
2022-11-18T15:31:24.273Z,6.40
2022-11-18T15:33:51.295Z,6.20
2022-11-18T15:36:19.250Z,6.20
2022-11-18T15:38:46.755Z,6.20
2022-11-18T15:41:22.996Z,6.30
2022-11-18T15:43:50.492Z,6.30
2022-11-18T15:46:20.473Z,6.40
2022-11-18T15:48:48.417Z,6.40
2022-11-18T15:51:15.260Z,6.40
2022-11-18T15:53:42.019Z,6.20
2022-11-18T15:56:21.169Z,6.30
2022-11-18T15:59:05.520Z,6.30
2022-11-18T16:01:38.186Z,6.00
2022-11-18T16:04:06.633Z,5.80
2022-11-18T16:06:33.809Z,5.90
2022-11-18T16:09:00.911Z,6.00
2022-11-18T16:11:47.674Z,6.00
2022-11-18T16:14:17.248Z,5.90
2022-11-18T16:16:46.199Z,5.90
2022-11-18T16:19:15.725Z,6.00
2022-11-18T16:21:46.363Z,6.10
2022-11-18T16:24:47.127Z,6.20
2022-11-18T16:27:15.036Z,6.20
2022-11-18T16:29:41.832Z,6.20
2022-11-18T16:32:13.252Z,6.20
2022-11-18T16:34:40.662Z,6.20
2022-11-18T16:37:08.808Z,6.20
2022-11-18T16:39:35.538Z,6.20
2022-11-18T16:42:08.345Z,6.30
2022-11-18T16:44:36.706Z,6.30
2022-11-18T16:47:09.169Z,6.30
2022-11-18T16:49:40.942Z,6.20
2022-11-18T16:52:08.130Z,6.20
2022-11-18T16:54:36.347Z,6.20
2022-11-18T16:57:06.413Z,6.00
2022-11-18T16:59:33.162Z,6.20
2022-11-18T17:02:02.124Z,6.10
2022-11-18T17:04:30.709Z,6.20
2022-11-18T17:07:00.016Z,6.20
2022-11-18T17:09:27.071Z,6.10
2022-11-18T17:11:57.151Z,6.10
2022-11-18T17:14:24.561Z,6.20
2022-11-18T17:16:52.601Z,6.20
2022-11-18T17:19:22.046Z,6.20
2022-11-18T17:22:03.547Z,6.20
2022-11-18T17:24:30.338Z,6.10
2022-11-18T17:27:07.220Z,6.10
2022-11-18T17:29:34.682Z,6.10
2022-11-18T17:32:01.799Z,6.10
2022-11-18T17:34:28.547Z,6.10
2022-11-18T17:36:55.324Z,6.00
2022-11-18T17:39:22.061Z,6.00
2022-11-18T17:42:07.232Z,6.00
2022-11-18T17:44:33.949Z,6.10
2022-11-18T17:47:02.786Z,5.90
2022-11-18T17:49:29.510Z,5.80
2022-11-18T17:51:56.287Z,5.90
2022-11-18T17:54:23.314Z,6.00
2022-11-18T17:56:53.526Z,5.80
2022-11-18T17:59:21.596Z,5.80
2022-11-18T18:02:02.518Z,5.90
2022-11-18T18:04:29.405Z,5.70
2022-11-18T18:06:56.263Z,5.70
2022-11-18T18:09:35.074Z,5.70
2022-11-18T18:12:21.834Z,5.80
2022-11-18T18:14:48.574Z,5.80
2022-11-18T18:17:15.319Z,5.80
2022-11-18T18:19:42.077Z,5.60
2022-11-18T18:22:08.862Z,5.50
2022-11-18T18:24:35.602Z,5.50
2022-11-18T18:27:02.318Z,5.60
2022-11-18T18:29:29.087Z,5.70
2022-11-18T18:31:55.891Z,5.80
2022-11-18T18:34:22.746Z,5.50
2022-11-18T18:36:49.528Z,5.30
2022-11-18T18:39:16.354Z,5.50
2022-11-18T18:41:43.140Z,5.50
2022-11-18T18:44:15.205Z,5.40
2022-11-18T18:46:44.977Z,5.40
2022-11-18T18:49:20.199Z,5.20
2022-11-18T18:51:50.833Z,5.10
2022-11-18T18:54:20.062Z,4.80
2022-11-18T18:56:47.140Z,4.80
2022-11-18T18:59:14.014Z,4.80
2022-11-18T19:01:40.871Z,4.50
2022-11-18T19:04:11.283Z,4.60
2022-11-18T19:06:59.426Z,4.80
2022-11-18T19:09:26.359Z,5.00
2022-11-18T19:12:12.317Z,5.10
2022-11-18T19:14:39.724Z,4.90
2022-11-18T19:17:11.303Z,5.00
2022-11-18T19:19:58.694Z,5.10
2022-11-18T19:22:25.560Z,5.10
2022-11-18T19:27:40.451Z,5.10
2022-11-18T19:30:08.995Z,5.10
2022-11-18T19:32:36.934Z,5.00
2022-11-18T19:35:04.750Z,5.00
2022-11-18T19:37:32.266Z,5.10
2022-11-18T19:40:05.670Z,5.20
2022-11-18T19:42:36.345Z,5.20
2022-11-18T19:45:04.607Z,5.30
2022-11-18T19:47:31.756Z,5.30
2022-11-18T19:49:58.485Z,5.30
2022-11-18T19:52:25.482Z,5.20
2022-11-18T19:54:52.207Z,5.40
2022-11-18T19:57:19.017Z,5.40
2022-11-18T19:59:46.390Z,5.50
2022-11-18T20:02:14.340Z,5.50
2022-11-18T20:05:18.777Z,5.60
2022-11-18T20:07:45.597Z,5.60
2022-11-18T20:10:12.468Z,5.50
2022-11-18T20:12:40.820Z,5.50
2022-11-18T20:15:08.206Z,5.50
2022-11-18T20:17:34.947Z,5.50
2022-11-18T20:20:01.754Z,5.50
2022-11-18T20:22:28.548Z,5.60
2022-11-18T20:24:55.289Z,5.60
2022-11-18T20:27:22.125Z,5.60
2022-11-18T20:29:48.890Z,5.60
2022-11-18T20:32:15.655Z,5.60
2022-11-18T20:34:42.736Z,5.60
2022-11-18T20:37:09.558Z,5.60
2022-11-18T20:39:36.322Z,5.50
2022-11-18T20:42:21.410Z,5.50
2022-11-18T20:44:48.197Z,5.60
2022-11-18T20:47:14.952Z,5.60
2022-11-18T20:49:41.823Z,5.60
2022-11-18T20:52:08.534Z,5.60
2022-11-18T20:54:35.291Z,5.60
2022-11-18T20:57:02.075Z,5.60
2022-11-18T20:59:28.824Z,5.70
2022-11-18T21:01:55.594Z,5.70
2022-11-18T21:04:22.578Z,5.70
2022-11-18T21:06:49.738Z,5.70
2022-11-18T21:09:17.185Z,5.70
2022-11-18T21:11:44.205Z,5.70
2022-11-18T21:14:24.920Z,5.70
2022-11-18T21:16:55.255Z,5.80
2022-11-18T21:19:23.040Z,5.80
2022-11-18T21:21:52.711Z,5.80
2022-11-18T21:24:23.812Z,5.80
2022-11-18T21:26:54.329Z,5.80
2022-11-18T21:29:22.366Z,5.90
2022-11-18T21:31:49.742Z,5.90
2022-11-18T21:34:18.338Z,5.90
2022-11-18T21:36:50.361Z,5.90
2022-11-18T21:39:20.158Z,5.90
2022-11-18T21:41:52.072Z,5.80
2022-11-18T21:44:20.625Z,5.90
2022-11-18T21:46:47.434Z,5.90
2022-11-18T21:49:14.204Z,5.90
2022-11-18T21:51:40.962Z,5.90
2022-11-18T21:54:08.708Z,5.90
2022-11-18T21:56:35.622Z,5.80
2022-11-18T21:59:03.180Z,5.70
2022-11-18T22:01:32.139Z,5.80
2022-11-18T22:04:01.574Z,5.80
2022-11-18T22:06:30.242Z,5.70
2022-11-18T22:08:57.343Z,5.60
2022-11-18T22:11:25.635Z,5.40
2022-11-18T22:13:53.409Z,5.40
2022-11-18T22:16:24.582Z,5.50
2022-11-18T22:18:58.128Z,5.50
2022-11-18T22:21:27.113Z,5.60
2022-11-18T22:23:59.195Z,5.60
2022-11-18T22:26:26.150Z,5.40
2022-11-18T22:28:55.320Z,5.50
2022-11-18T22:31:23.212Z,5.40
2022-11-18T22:33:53.756Z,5.40
2022-11-18T22:36:22.741Z,5.40
2022-11-18T22:38:50.282Z,5.40
2022-11-18T22:41:37.968Z,5.40
2022-11-18T22:44:08.037Z,5.40
2022-11-18T22:46:39.876Z,5.20
2022-11-18T22:49:08.090Z,5.20
2022-11-18T22:51:36.180Z,5.30
2022-11-18T22:56:50.413Z,5.20
2022-11-18T22:59:17.634Z,5.20
2022-11-18T23:01:44.596Z,5.20
2022-11-18T23:04:11.362Z,5.30
2022-11-18T23:06:38.106Z,5.40
2022-11-18T23:09:05.039Z,5.40
2022-11-18T23:11:50.214Z,5.30
2022-11-18T23:14:17.063Z,5.40
2022-11-18T23:16:44.202Z,5.30
2022-11-18T23:19:15.914Z,5.20
2022-11-18T23:21:43.395Z,5.20
2022-11-18T23:24:18.972Z,5.10
2022-11-18T23:26:46.235Z,5.10
2022-11-18T23:29:14.426Z,5.10
2022-11-18T23:31:43.004Z,5.20
2022-11-18T23:34:15.157Z,5.10
2022-11-18T23:36:42.870Z,5.10
2022-11-18T23:39:09.787Z,5.30
2022-11-18T23:41:36.943Z,5.30
2022-11-18T23:44:04.442Z,5.30
2022-11-18T23:46:32.086Z,5.30
2022-11-18T23:48:59.309Z,5.20
2022-11-18T23:51:26.487Z,5.10
2022-11-18T23:53:55.414Z,5.10
2022-11-18T23:56:24.880Z,5.10
2022-11-18T23:58:53.370Z,5.10
